sensor_id;sensor_type;location;lat;lon;timestamp;P1;durP1;ratioP1;P2;durP2;ratioP2
25129;SDS011;13308;50.860;13.664;2023-03-01T07:07:40;27.02;;;10.45;;
25129;SDS011;13308;50.860;13.664;2023-03-01T07:10:05;21.85;;;9.10;;
25129;SDS011;13308;50.860;13.664;2023-03-01T07:12:31;16.90;;;9.07;;
25129;SDS011;13308;50.860;13.664;2023-03-01T07:14:57;14.95;;;8.32;;
25129;SDS011;13308;50.860;13.664;2023-03-01T07:17:22;17.25;;;8.38;;
25129;SDS011;13308;50.860;13.664;2023-03-01T07:19:48;14.60;;;7.18;;
25129;SDS011;13308;50.860;13.664;2023-03-01T07:22:13;17.05;;;8.02;;
25129;SDS011;13308;50.860;13.664;2023-03-01T07:24:38;16.60;;;8.20;;
25129;SDS011;13308;50.860;13.664;2023-03-01T07:27:04;13.98;;;8.23;;
25129;SDS011;13308;50.860;13.664;2023-03-01T07:29:29;16.30;;;7.97;;
25129;SDS011;13308;50.860;13.664;2023-03-01T07:31:55;17.58;;;8.48;;
25129;SDS011;13308;50.860;13.664;2023-03-01T07:34:20;15.98;;;7.90;;
25129;SDS011;13308;50.860;13.664;2023-03-01T07:36:45;23.35;;;10.25;;
25129;SDS011;13308;50.860;13.664;2023-03-01T07:39:11;21.40;;;8.43;;
25129;SDS011;13308;50.860;13.664;2023-03-01T07:41:36;22.92;;;7.78;;
25129;SDS011;13308;50.860;13.664;2023-03-01T07:44:02;17.58;;;9.23;;
25129;SDS011;13308;50.860;13.664;2023-03-01T07:46:27;18.30;;;8.73;;
25129;SDS011;13308;50.860;13.664;2023-03-01T07:48:53;18.95;;;9.60;;
25129;SDS011;13308;50.860;13.664;2023-03-01T07:51:18;21.45;;;10.43;;
25129;SDS011;13308;50.860;13.664;2023-03-01T07:53:45;22.73;;;9.45;;
25129;SDS011;13308;50.860;13.664;2023-03-01T07:56:12;22.48;;;9.25;;
25129;SDS011;13308;50.860;13.664;2023-03-01T07:58:42;19.00;;;9.20;;
25129;SDS011;13308;50.860;13.664;2023-03-01T08:01:10;27.60;;;10.07;;
25129;SDS011;13308;50.860;13.664;2023-03-01T08:03:38;20.63;;;9.65;;
25129;SDS011;13308;50.860;13.664;2023-03-01T08:06:04;21.88;;;10.02;;
25129;SDS011;13308;50.860;13.664;2023-03-01T08:08:31;23.27;;;10.57;;
25129;SDS011;13308;50.860;13.664;2023-03-01T08:10:57;20.08;;;9.48;;
25129;SDS011;13308;50.860;13.664;2023-03-01T08:13:24;23.77;;;10.43;;
25129;SDS011;13308;50.860;13.664;2023-03-01T08:15:50;28.40;;;10.80;;
25129;SDS011;13308;50.860;13.664;2023-03-01T08:18:16;24.63;;;10.20;;
25129;SDS011;13308;50.860;13.664;2023-03-01T08:20:42;22.17;;;10.55;;
25129;SDS011;13308;50.860;13.664;2023-03-01T08:23:07;29.58;;;12.02;;
25129;SDS011;13308;50.860;13.664;2023-03-01T08:25:33;27.65;;;12.52;;
25129;SDS011;13308;50.860;13.664;2023-03-01T08:27:58;20.52;;;11.10;;
25129;SDS011;13308;50.860;13.664;2023-03-01T08:30:23;26.35;;;11.88;;
25129;SDS011;13308;50.860;13.664;2023-03-01T08:32:49;31.20;;;13.30;;
25129;SDS011;13308;50.860;13.664;2023-03-01T08:35:15;29.40;;;13.30;;
25129;SDS011;13308;50.860;13.664;2023-03-01T08:37:41;32.25;;;13.27;;
25129;SDS011;13308;50.860;13.664;2023-03-01T08:40:06;31.38;;;13.63;;
25129;SDS011;13308;50.860;13.664;2023-03-01T08:42:34;30.48;;;13.00;;
25129;SDS011;13308;50.860;13.664;2023-03-01T08:45:01;21.92;;;12.57;;
25129;SDS011;13308;50.860;13.664;2023-03-01T08:47:26;29.85;;;13.68;;
25129;SDS011;13308;50.860;13.664;2023-03-01T08:49:52;30.85;;;14.00;;
25129;SDS011;13308;50.860;13.664;2023-03-01T08:52:17;25.10;;;12.93;;
25129;SDS011;13308;50.860;13.664;2023-03-01T08:54:44;27.27;;;13.77;;
25129;SDS011;13308;50.860;13.664;2023-03-01T08:57:09;28.55;;;13.95;;
25129;SDS011;13308;50.860;13.664;2023-03-01T08:59:34;32.35;;;14.00;;
25129;SDS011;13308;50.860;13.664;2023-03-01T09:02:02;28.33;;;13.70;;
25129;SDS011;13308;50.860;13.664;2023-03-01T09:04:35;24.88;;;13.32;;
25129;SDS011;13308;50.860;13.664;2023-03-01T09:07:00;27.25;;;14.40;;
25129;SDS011;13308;50.860;13.664;2023-03-01T09:09:26;29.10;;;14.98;;
25129;SDS011;13308;50.860;13.664;2023-03-01T09:11:51;29.08;;;15.55;;
25129;SDS011;13308;50.860;13.664;2023-03-01T09:14:16;34.03;;;15.73;;
25129;SDS011;13308;50.860;13.664;2023-03-01T09:16:42;39.30;;;18.75;;
25129;SDS011;13308;50.860;13.664;2023-03-01T09:19:07;36.08;;;17.23;;
25129;SDS011;13308;50.860;13.664;2023-03-01T09:21:33;33.20;;;16.50;;
25129;SDS011;13308;50.860;13.664;2023-03-01T09:23:58;37.05;;;17.58;;
25129;SDS011;13308;50.860;13.664;2023-03-01T09:26:24;34.65;;;17.45;;
25129;SDS011;13308;50.860;13.664;2023-03-01T09:28:51;35.78;;;16.85;;
25129;SDS011;13308;50.860;13.664;2023-03-01T09:31:18;33.15;;;16.02;;
25129;SDS011;13308;50.860;13.664;2023-03-01T09:33:46;35.72;;;17.58;;
25129;SDS011;13308;50.860;13.664;2023-03-01T09:36:14;33.65;;;17.67;;
25129;SDS011;13308;50.860;13.664;2023-03-01T09:38:47;36.42;;;16.75;;
25129;SDS011;13308;50.860;13.664;2023-03-01T09:44:24;74.85;;;31.23;;
25129;SDS011;13308;50.860;13.664;2023-03-01T09:46:57;35.88;;;18.75;;
25129;SDS011;13308;50.860;13.664;2023-03-01T09:49:25;35.05;;;17.63;;
25129;SDS011;13308;50.860;13.664;2023-03-01T09:52:12;31.58;;;15.82;;
25129;SDS011;13308;50.860;13.664;2023-03-01T09:54:55;32.65;;;14.75;;
25129;SDS011;13308;50.860;13.664;2023-03-01T10:00:17;29.75;;;14.75;;
25129;SDS011;13308;50.860;13.664;2023-03-01T10:02:49;28.00;;;14.27;;
25129;SDS011;13308;50.860;13.664;2023-03-01T10:05:27;27.45;;;15.27;;
25129;SDS011;13308;50.860;13.664;2023-03-01T10:08:02;29.58;;;15.57;;
25129;SDS011;13308;50.860;13.664;2023-03-01T10:10:45;28.42;;;15.50;;
25129;SDS011;13308;50.860;13.664;2023-03-01T10:16:15;30.40;;;14.95;;
25129;SDS011;13308;50.860;13.664;2023-03-01T10:18:43;39.30;;;16.17;;
25129;SDS011;13308;50.860;13.664;2023-03-01T10:21:15;28.80;;;15.18;;
25129;SDS011;13308;50.860;13.664;2023-03-01T10:23:44;30.00;;;15.02;;
25129;SDS011;13308;50.860;13.664;2023-03-01T10:29:07;30.40;;;16.02;;
25129;SDS011;13308;50.860;13.664;2023-03-01T10:31:44;31.13;;;15.68;;
25129;SDS011;13308;50.860;13.664;2023-03-01T10:34:13;31.35;;;16.67;;
25129;SDS011;13308;50.860;13.664;2023-03-01T10:36:41;29.02;;;16.13;;
25129;SDS011;13308;50.860;13.664;2023-03-01T10:39:17;36.97;;;18.35;;
25129;SDS011;13308;50.860;13.664;2023-03-01T10:41:51;32.00;;;16.73;;
25129;SDS011;13308;50.860;13.664;2023-03-01T10:44:38;29.70;;;15.88;;
25129;SDS011;13308;50.860;13.664;2023-03-01T10:47:03;38.50;;;16.55;;
25129;SDS011;13308;50.860;13.664;2023-03-01T10:49:29;30.65;;;16.58;;
25129;SDS011;13308;50.860;13.664;2023-03-01T10:51:54;34.92;;;18.08;;
25129;SDS011;13308;50.860;13.664;2023-03-01T10:56:52;33.85;;;17.73;;
25129;SDS011;13308;50.860;13.664;2023-03-01T11:02:03;37.13;;;17.83;;
25129;SDS011;13308;50.860;13.664;2023-03-01T11:04:35;31.75;;;15.95;;
25129;SDS011;13308;50.860;13.664;2023-03-01T11:07:01;29.35;;;16.15;;
25129;SDS011;13308;50.860;13.664;2023-03-01T11:09:30;33.45;;;17.67;;
25129;SDS011;13308;50.860;13.664;2023-03-01T11:12:02;35.35;;;17.13;;
25129;SDS011;13308;50.860;13.664;2023-03-01T11:14:33;28.73;;;16.70;;
25129;SDS011;13308;50.860;13.664;2023-03-01T11:17:44;28.50;;;15.90;;
25129;SDS011;13308;50.860;13.664;2023-03-01T11:20:01;32.22;;;16.73;;
25129;SDS011;13308;50.860;13.664;2023-03-01T11:22:47;30.42;;;15.93;;
25129;SDS011;13308;50.860;13.664;2023-03-01T11:25:16;29.25;;;14.57;;
25129;SDS011;13308;50.860;13.664;2023-03-01T11:27:44;29.55;;;15.32;;
25129;SDS011;13308;50.860;13.664;2023-03-01T11:30:20;26.10;;;14.85;;
25129;SDS011;13308;50.860;13.664;2023-03-01T11:32:55;28.85;;;15.15;;
25129;SDS011;13308;50.860;13.664;2023-03-01T11:35:28;29.33;;;15.40;;
25129;SDS011;13308;50.860;13.664;2023-03-01T11:38:12;28.92;;;15.45;;
25129;SDS011;13308;50.860;13.664;2023-03-01T11:40:46;26.02;;;14.40;;
25129;SDS011;13308;50.860;13.664;2023-03-01T11:51:48;25.85;;;14.93;;
25129;SDS011;13308;50.860;13.664;2023-03-01T11:54:41;31.42;;;14.70;;
25129;SDS011;13308;50.860;13.664;2023-03-01T11:57:30;26.60;;;15.48;;
25129;SDS011;13308;50.860;13.664;2023-03-01T12:00:25;28.20;;;16.13;;
25129;SDS011;13308;50.860;13.664;2023-03-01T12:03:13;29.45;;;15.48;;
25129;SDS011;13308;50.860;13.664;2023-03-01T12:08:52;28.40;;;15.35;;
25129;SDS011;13308;50.860;13.664;2023-03-01T12:11:37;26.55;;;15.02;;
25129;SDS011;13308;50.860;13.664;2023-03-01T12:23:00;24.48;;;14.55;;
25129;SDS011;13308;50.860;13.664;2023-03-01T12:25:45;29.10;;;15.20;;
25129;SDS011;13308;50.860;13.664;2023-03-01T12:36:48;29.85;;;16.55;;
25129;SDS011;13308;50.860;13.664;2023-03-01T12:39:33;30.60;;;16.50;;
25129;SDS011;13308;50.860;13.664;2023-03-01T12:50:22;25.15;;;15.40;;
25129;SDS011;13308;50.860;13.664;2023-03-01T12:52:55;29.25;;;16.35;;
25129;SDS011;13308;50.860;13.664;2023-03-01T12:55:29;27.65;;;15.60;;
25129;SDS011;13308;50.860;13.664;2023-03-01T13:06:47;26.85;;;15.38;;
25129;SDS011;13308;50.860;13.664;2023-03-01T13:09:24;30.45;;;15.25;;
25129;SDS011;13308;50.860;13.664;2023-03-01T13:11:58;25.55;;;15.18;;
25129;SDS011;13308;50.860;13.664;2023-03-01T13:16:50;29.33;;;15.45;;
25129;SDS011;13308;50.860;13.664;2023-03-01T13:19:17;30.05;;;15.07;;
25129;SDS011;13308;50.860;13.664;2023-03-01T13:21:48;25.73;;;15.10;;
25129;SDS011;13308;50.860;13.664;2023-03-01T13:29:45;25.75;;;14.55;;
25129;SDS011;13308;50.860;13.664;2023-03-01T13:32:25;20.23;;;13.60;;
25129;SDS011;13308;50.860;13.664;2023-03-01T13:34:54;24.65;;;16.00;;
25129;SDS011;13308;50.860;13.664;2023-03-01T13:37:40;21.33;;;14.23;;
25129;SDS011;13308;50.860;13.664;2023-03-01T13:42:52;24.17;;;13.82;;
25129;SDS011;13308;50.860;13.664;2023-03-01T13:48:11;22.30;;;13.45;;
25129;SDS011;13308;50.860;13.664;2023-03-01T13:50:46;25.10;;;15.75;;
25129;SDS011;13308;50.860;13.664;2023-03-01T13:53:19;26.40;;;15.27;;
25129;SDS011;13308;50.860;13.664;2023-03-01T13:55:48;22.45;;;14.38;;
25129;SDS011;13308;50.860;13.664;2023-03-01T13:58:22;29.65;;;20.17;;
25129;SDS011;13308;50.860;13.664;2023-03-01T14:03:32;24.80;;;16.35;;
25129;SDS011;13308;50.860;13.664;2023-03-01T14:06:09;35.30;;;23.48;;
25129;SDS011;13308;50.860;13.664;2023-03-01T14:08:40;46.67;;;32.70;;
25129;SDS011;13308;50.860;13.664;2023-03-01T14:16:33;25.33;;;14.63;;
25129;SDS011;13308;50.860;13.664;2023-03-01T14:21:41;23.85;;;15.25;;
25129;SDS011;13308;50.860;13.664;2023-03-01T14:24:14;26.17;;;17.80;;
25129;SDS011;13308;50.860;13.664;2023-03-01T14:26:42;33.38;;;17.65;;
25129;SDS011;13308;50.860;13.664;2023-03-01T14:29:22;27.40;;;15.35;;
25129;SDS011;13308;50.860;13.664;2023-03-01T14:31:52;31.75;;;18.35;;
25129;SDS011;13308;50.860;13.664;2023-03-01T14:34:21;30.08;;;19.20;;
25129;SDS011;13308;50.860;13.664;2023-03-01T14:36:48;31.98;;;18.92;;
25129;SDS011;13308;50.860;13.664;2023-03-01T14:39:22;30.40;;;17.45;;
25129;SDS011;13308;50.860;13.664;2023-03-01T14:41:51;52.45;;;34.38;;
25129;SDS011;13308;50.860;13.664;2023-03-01T14:44:21;51.03;;;30.23;;
25129;SDS011;13308;50.860;13.664;2023-03-01T14:46:51;40.60;;;23.70;;
25129;SDS011;13308;50.860;13.664;2023-03-01T14:49:20;49.95;;;30.95;;
25129;SDS011;13308;50.860;13.664;2023-03-01T14:51:52;78.32;;;47.35;;
25129;SDS011;13308;50.860;13.664;2023-03-01T14:54:29;42.67;;;25.70;;
25129;SDS011;13308;50.860;13.664;2023-03-01T14:57:24;37.92;;;23.48;;
25129;SDS011;13308;50.860;13.664;2023-03-01T14:59:51;82.88;;;54.95;;
25129;SDS011;13308;50.860;13.664;2023-03-01T15:02:20;29.00;;;17.60;;
25129;SDS011;13308;50.860;13.664;2023-03-01T15:04:49;30.33;;;19.13;;
25129;SDS011;13308;50.860;13.664;2023-03-01T15:07:16;47.03;;;29.27;;
25129;SDS011;13308;50.860;13.664;2023-03-01T15:09:43;54.70;;;35.95;;
25129;SDS011;13308;50.860;13.664;2023-03-01T15:14:52;35.63;;;20.52;;
25129;SDS011;13308;50.860;13.664;2023-03-01T15:17:26;35.55;;;20.30;;
25129;SDS011;13308;50.860;13.664;2023-03-01T15:19:55;32.65;;;19.15;;
25129;SDS011;13308;50.860;13.664;2023-03-01T15:22:20;28.85;;;15.63;;
25129;SDS011;13308;50.860;13.664;2023-03-01T15:24:49;34.00;;;18.98;;
25129;SDS011;13308;50.860;13.664;2023-03-01T15:27:19;52.50;;;33.90;;
25129;SDS011;13308;50.860;13.664;2023-03-01T15:29:50;33.40;;;20.70;;
25129;SDS011;13308;50.860;13.664;2023-03-01T15:32:34;34.65;;;20.73;;
25129;SDS011;13308;50.860;13.664;2023-03-01T15:38:04;35.28;;;20.30;;
25129;SDS011;13308;50.860;13.664;2023-03-01T15:40:29;45.15;;;26.90;;
25129;SDS011;13308;50.860;13.664;2023-03-01T15:43:02;30.77;;;16.25;;
25129;SDS011;13308;50.860;13.664;2023-03-01T15:45:29;28.50;;;15.30;;
25129;SDS011;13308;50.860;13.664;2023-03-01T15:48:02;30.30;;;15.55;;
25129;SDS011;13308;50.860;13.664;2023-03-01T15:50:30;31.45;;;18.27;;
25129;SDS011;13308;50.860;13.664;2023-03-01T15:52:59;30.80;;;16.75;;
25129;SDS011;13308;50.860;13.664;2023-03-01T15:55:27;35.60;;;18.83;;
25129;SDS011;13308;50.860;13.664;2023-03-01T15:57:59;36.53;;;18.23;;
25129;SDS011;13308;50.860;13.664;2023-03-01T16:00:28;29.33;;;14.68;;
25129;SDS011;13308;50.860;13.664;2023-03-01T16:02:54;31.25;;;15.98;;
25129;SDS011;13308;50.860;13.664;2023-03-01T16:05:21;41.63;;;22.40;;
25129;SDS011;13308;50.860;13.664;2023-03-01T16:07:49;30.05;;;16.13;;
25129;SDS011;13308;50.860;13.664;2023-03-01T16:10:15;32.22;;;16.30;;
25129;SDS011;13308;50.860;13.664;2023-03-01T16:12:41;29.17;;;14.95;;
25129;SDS011;13308;50.860;13.664;2023-03-01T16:15:20;31.25;;;15.07;;
25129;SDS011;13308;50.860;13.664;2023-03-01T16:17:45;32.20;;;14.13;;
25129;SDS011;13308;50.860;13.664;2023-03-01T16:20:16;32.05;;;14.13;;
25129;SDS011;13308;50.860;13.664;2023-03-01T16:22:42;36.60;;;17.13;;
25129;SDS011;13308;50.860;13.664;2023-03-01T16:25:09;31.67;;;15.82;;
25129;SDS011;13308;50.860;13.664;2023-03-01T16:27:35;33.13;;;15.38;;
25129;SDS011;13308;50.860;13.664;2023-03-01T16:30:00;31.25;;;14.93;;
25129;SDS011;13308;50.860;13.664;2023-03-01T16:32:25;28.88;;;13.88;;
25129;SDS011;13308;50.860;13.664;2023-03-01T16:34:51;30.40;;;13.52;;
25129;SDS011;13308;50.860;13.664;2023-03-01T16:37:16;29.80;;;15.35;;
25129;SDS011;13308;50.860;13.664;2023-03-01T16:39:41;28.98;;;13.50;;
25129;SDS011;13308;50.860;13.664;2023-03-01T16:42:07;30.75;;;14.18;;
25129;SDS011;13308;50.860;13.664;2023-03-01T16:44:32;37.53;;;14.50;;
25129;SDS011;13308;50.860;13.664;2023-03-01T16:46:57;31.75;;;14.48;;
25129;SDS011;13308;50.860;13.664;2023-03-01T16:49:23;32.08;;;14.65;;
25129;SDS011;13308;50.860;13.664;2023-03-01T16:51:48;27.55;;;13.70;;
25129;SDS011;13308;50.860;13.664;2023-03-01T16:54:13;36.60;;;14.60;;
25129;SDS011;13308;50.860;13.664;2023-03-01T16:56:39;35.00;;;13.98;;
25129;SDS011;13308;50.860;13.664;2023-03-01T16:59:04;29.98;;;14.10;;
25129;SDS011;13308;50.860;13.664;2023-03-01T17:01:30;36.65;;;15.90;;
25129;SDS011;13308;50.860;13.664;2023-03-01T17:04:02;30.50;;;14.90;;
25129;SDS011;13308;50.860;13.664;2023-03-01T17:06:28;30.33;;;14.05;;
25129;SDS011;13308;50.860;13.664;2023-03-01T17:08:53;32.30;;;16.88;;
25129;SDS011;13308;50.860;13.664;2023-03-01T17:11:19;33.78;;;16.55;;
25129;SDS011;13308;50.860;13.664;2023-03-01T17:13:45;59.03;;;24.23;;
25129;SDS011;13308;50.860;13.664;2023-03-01T17:16:12;80.53;;;29.70;;
25129;SDS011;13308;50.860;13.664;2023-03-01T17:18:39;65.07;;;26.55;;
25129;SDS011;13308;50.860;13.664;2023-03-01T17:21:06;103.18;;;35.58;;
25129;SDS011;13308;50.860;13.664;2023-03-01T17:23:32;47.55;;;18.00;;
25129;SDS011;13308;50.860;13.664;2023-03-01T17:25:58;44.05;;;19.05;;
25129;SDS011;13308;50.860;13.664;2023-03-01T17:28:25;40.95;;;17.25;;
25129;SDS011;13308;50.860;13.664;2023-03-01T17:30:52;33.92;;;15.48;;
25129;SDS011;13308;50.860;13.664;2023-03-01T17:33:17;31.75;;;13.55;;
25129;SDS011;13308;50.860;13.664;2023-03-01T17:35:43;47.55;;;18.98;;
25129;SDS011;13308;50.860;13.664;2023-03-01T17:38:12;33.40;;;13.73;;
25129;SDS011;13308;50.860;13.664;2023-03-01T17:40:39;30.77;;;11.88;;
25129;SDS011;13308;50.860;13.664;2023-03-01T17:43:05;30.73;;;13.55;;
25129;SDS011;13308;50.860;13.664;2023-03-01T17:45:31;29.92;;;13.95;;
25129;SDS011;13308;50.860;13.664;2023-03-01T17:47:56;44.67;;;18.35;;
25129;SDS011;13308;50.860;13.664;2023-03-01T17:50:22;36.50;;;16.95;;
25129;SDS011;13308;50.860;13.664;2023-03-01T17:52:47;33.53;;;15.70;;
25129;SDS011;13308;50.860;13.664;2023-03-01T17:55:13;43.42;;;18.67;;
25129;SDS011;13308;50.860;13.664;2023-03-01T17:57:39;43.95;;;18.50;;
25129;SDS011;13308;50.860;13.664;2023-03-01T18:00:06;40.35;;;18.88;;
25129;SDS011;13308;50.860;13.664;2023-03-01T18:02:36;33.33;;;15.75;;
25129;SDS011;13308;50.860;13.664;2023-03-01T18:05:02;32.03;;;14.07;;
25129;SDS011;13308;50.860;13.664;2023-03-01T18:07:28;32.60;;;14.15;;
25129;SDS011;13308;50.860;13.664;2023-03-01T18:09:54;32.53;;;14.57;;
25129;SDS011;13308;50.860;13.664;2023-03-01T18:12:20;27.63;;;13.57;;
25129;SDS011;13308;50.860;13.664;2023-03-01T18:14:45;33.05;;;15.40;;
25129;SDS011;13308;50.860;13.664;2023-03-01T18:17:12;30.52;;;15.48;;
25129;SDS011;13308;50.860;13.664;2023-03-01T18:19:38;31.85;;;13.95;;
25129;SDS011;13308;50.860;13.664;2023-03-01T18:22:05;29.83;;;13.93;;
25129;SDS011;13308;50.860;13.664;2023-03-01T18:24:32;25.20;;;11.88;;
25129;SDS011;13308;50.860;13.664;2023-03-01T18:26:58;26.02;;;10.88;;
25129;SDS011;13308;50.860;13.664;2023-03-01T18:29:23;26.10;;;12.02;;
25129;SDS011;13308;50.860;13.664;2023-03-01T18:31:49;24.17;;;10.88;;
25129;SDS011;13308;50.860;13.664;2023-03-01T18:34:14;25.42;;;11.35;;
25129;SDS011;13308;50.860;13.664;2023-03-01T18:36:40;22.38;;;10.80;;
25129;SDS011;13308;50.860;13.664;2023-03-01T18:39:05;24.33;;;11.18;;
25129;SDS011;13308;50.860;13.664;2023-03-01T18:41:31;24.02;;;11.30;;
25129;SDS011;13308;50.860;13.664;2023-03-01T18:43:58;31.63;;;12.00;;
25129;SDS011;13308;50.860;13.664;2023-03-01T18:46:24;25.00;;;11.50;;
25129;SDS011;13308;50.860;13.664;2023-03-01T18:48:50;30.17;;;12.02;;
25129;SDS011;13308;50.860;13.664;2023-03-01T18:51:18;24.45;;;10.57;;
25129;SDS011;13308;50.860;13.664;2023-03-01T18:53:45;23.95;;;11.55;;
25129;SDS011;13308;50.860;13.664;2023-03-01T18:56:11;26.20;;;11.43;;
25129;SDS011;13308;50.860;13.664;2023-03-01T18:58:37;25.63;;;12.15;;
25129;SDS011;13308;50.860;13.664;2023-03-01T19:01:03;26.60;;;10.32;;
25129;SDS011;13308;50.860;13.664;2023-03-01T19:03:32;42.83;;;16.77;;
25129;SDS011;13308;50.860;13.664;2023-03-01T19:05:58;38.35;;;16.52;;
25129;SDS011;13308;50.860;13.664;2023-03-01T19:08:26;30.58;;;13.93;;
25129;SDS011;13308;50.860;13.664;2023-03-01T19:10:56;21.35;;;10.05;;
25129;SDS011;13308;50.860;13.664;2023-03-01T19:13:22;25.48;;;11.00;;
25129;SDS011;13308;50.860;13.664;2023-03-01T19:15:48;24.50;;;11.40;;
25129;SDS011;13308;50.860;13.664;2023-03-01T19:18:13;24.23;;;11.02;;
